sensor_id;sensor_type;location;lat;lon;timestamp;pressure;altitude;pressure_sealevel;temperature;humidity
75136;BME280;63707;52.212;9.540;2023-09-19T00:01:15;99066.97;;;14.47;100.00
75136;BME280;63707;52.212;9.540;2023-09-19T00:03:49;99076.84;;;14.48;100.00
75136;BME280;63707;52.212;9.540;2023-09-19T00:06:14;99076.03;;;14.48;100.00
75136;BME280;63707;52.212;9.540;2023-09-19T00:08:41;99083.22;;;14.54;100.00
75136;BME280;63707;52.212;9.540;2023-09-19T00:11:09;99086.47;;;14.51;100.00
75136;BME280;63707;52.212;9.540;2023-09-19T00:13:36;99087.81;;;14.48;100.00
75136;BME280;63707;52.212;9.540;2023-09-19T00:16:08;99090.88;;;14.52;100.00
75136;BME280;63707;52.212;9.540;2023-09-19T00:18:36;99089.78;;;14.53;100.00
75136;BME280;63707;52.212;9.540;2023-09-19T00:21:03;99094.44;;;14.53;100.00
75136;BME280;63707;52.212;9.540;2023-09-19T00:23:30;99090.56;;;14.48;100.00
75136;BME280;63707;52.212;9.540;2023-09-19T00:25:58;99083.75;;;14.51;100.00
75136;BME280;63707;52.212;9.540;2023-09-19T00:28:24;99083.81;;;14.56;100.00
75136;BME280;63707;52.212;9.540;2023-09-19T00:30:49;99083.38;;;14.42;100.00
75136;BME280;63707;52.212;9.540;2023-09-19T00:33:20;99090.56;;;14.48;100.00
75136;BME280;63707;52.212;9.540;2023-09-19T00:35:49;99088.19;;;14.57;100.00
75136;BME280;63707;52.212;9.540;2023-09-19T00:38:16;99101.44;;;14.65;100.00
75136;BME280;63707;52.212;9.540;2023-09-19T00:40:44;99094.91;;;14.66;100.00
75136;BME280;63707;52.212;9.540;2023-09-19T00:43:09;99092.59;;;14.58;100.00
75136;BME280;63707;52.212;9.540;2023-09-19T00:45:36;99090.06;;;14.52;100.00
75136;BME280;63707;52.212;9.540;2023-09-19T00:48:04;99087.88;;;14.54;100.00
75136;BME280;63707;52.212;9.540;2023-09-19T00:50:31;99091.97;;;14.51;100.00
75136;BME280;63707;52.212;9.540;2023-09-19T00:52:58;99096.56;;;14.45;100.00
75136;BME280;63707;52.212;9.540;2023-09-19T00:55:26;99092.78;;;14.30;100.00
75136;BME280;63707;52.212;9.540;2023-09-19T00:57:55;99098.31;;;14.35;100.00
75136;BME280;63707;52.212;9.540;2023-09-19T01:00:21;99104.00;;;14.50;100.00
75136;BME280;63707;52.212;9.540;2023-09-19T01:02:48;99114.53;;;14.58;100.00
75136;BME280;63707;52.212;9.540;2023-09-19T01:05:14;99105.88;;;14.66;100.00
75136;BME280;63707;52.212;9.540;2023-09-19T01:07:40;99113.50;;;14.64;100.00
75136;BME280;63707;52.212;9.540;2023-09-19T01:10:07;99112.69;;;14.64;100.00
75136;BME280;63707;52.212;9.540;2023-09-19T01:12:45;99116.59;;;14.68;100.00
75136;BME280;63707;52.212;9.540;2023-09-19T01:15:19;99126.78;;;14.72;100.00
75136;BME280;63707;52.212;9.540;2023-09-19T01:17:53;99117.41;;;14.68;100.00
75136;BME280;63707;52.212;9.540;2023-09-19T01:20:32;99118.81;;;14.71;100.00
75136;BME280;63707;52.212;9.540;2023-09-19T01:23:08;99123.78;;;14.74;100.00
75136;BME280;63707;52.212;9.540;2023-09-19T01:25:54;99122.44;;;14.76;100.00
75136;BME280;63707;52.212;9.540;2023-09-19T01:28:30;99119.44;;;14.78;100.00
75136;BME280;63707;52.212;9.540;2023-09-19T01:31:03;99120.53;;;14.77;100.00
75136;BME280;63707;52.212;9.540;2023-09-19T01:33:58;99124.09;;;14.77;100.00
75136;BME280;63707;52.212;9.540;2023-09-19T01:36:28;99125.50;;;14.80;100.00
75136;BME280;63707;52.212;9.540;2023-09-19T01:38:54;99135.97;;;14.83;100.00
75136;BME280;63707;52.212;9.540;2023-09-19T01:41:26;99138.97;;;14.82;100.00
75136;BME280;63707;52.212;9.540;2023-09-19T01:43:54;99142.28;;;14.84;100.00
75136;BME280;63707;52.212;9.540;2023-09-19T01:46:24;99143.09;;;14.84;100.00
75136;BME280;63707;52.212;9.540;2023-09-19T01:48:58;99145.53;;;14.80;100.00
75136;BME280;63707;52.212;9.540;2023-09-19T01:51:33;99149.16;;;14.86;100.00
75136;BME280;63707;52.212;9.540;2023-09-19T01:54:00;99146.72;;;14.90;100.00
75136;BME280;63707;52.212;9.540;2023-09-19T01:56:32;99148.91;;;14.88;100.00
75136;BME280;63707;52.212;9.540;2023-09-19T01:59:06;99151.66;;;14.88;100.00
75136;BME280;63707;52.212;9.540;2023-09-19T02:01:34;99148.31;;;14.86;100.00
75136;BME280;63707;52.212;9.540;2023-09-19T02:04:02;99150.00;;;14.87;100.00
75136;BME280;63707;52.212;9.540;2023-09-19T02:06:28;99155.47;;;14.87;100.00
75136;BME280;63707;52.212;9.540;2023-09-19T02:08:54;99162.31;;;14.84;100.00
75136;BME280;63707;52.212;9.540;2023-09-19T02:11:19;99163.13;;;14.85;100.00
75136;BME280;63707;52.212;9.540;2023-09-19T02:13:45;99173.28;;;14.84;100.00
75136;BME280;63707;52.212;9.540;2023-09-19T02:16:11;99176.31;;;14.88;100.00
75136;BME280;63707;52.212;9.540;2023-09-19T02:18:39;99175.50;;;14.87;100.00
75136;BME280;63707;52.212;9.540;2023-09-19T02:21:05;99182.84;;;14.82;100.00
75136;BME280;63707;52.212;9.540;2023-09-19T02:23:31;99178.13;;;14.77;100.00
75136;BME280;63707;52.212;9.540;2023-09-19T02:25:58;99186.41;;;14.82;100.00
75136;BME280;63707;52.212;9.540;2023-09-19T02:28:25;99198.16;;;14.77;100.00
75136;BME280;63707;52.212;9.540;2023-09-19T02:30:55;99196.44;;;14.71;100.00
75136;BME280;63707;52.212;9.540;2023-09-19T02:33:21;99193.09;;;14.69;100.00
75136;BME280;63707;52.212;9.540;2023-09-19T02:35:48;99197.75;;;14.69;100.00
75136;BME280;63707;52.212;9.540;2023-09-19T02:38:13;99203.00;;;14.70;100.00
75136;BME280;63707;52.212;9.540;2023-09-19T02:40:40;99200.81;;;14.72;100.00
75136;BME280;63707;52.212;9.540;2023-09-19T02:43:05;99200.25;;;14.70;100.00
75136;BME280;63707;52.212;9.540;2023-09-19T02:45:32;99201.09;;;14.71;100.00
75136;BME280;63707;52.212;9.540;2023-09-19T02:47:58;99199.41;;;14.70;100.00
75136;BME280;63707;52.212;9.540;2023-09-19T02:50:23;99195.59;;;14.71;100.00
75136;BME280;63707;52.212;9.540;2023-09-19T02:52:50;99198.91;;;14.73;100.00
75136;BME280;63707;52.212;9.540;2023-09-19T02:55:17;99193.44;;;14.73;100.00
75136;BME280;63707;52.212;9.540;2023-09-19T02:57:46;99203.06;;;14.75;100.00
75136;BME280;63707;52.212;9.540;2023-09-19T03:00:12;99208.78;;;14.74;100.00
75136;BME280;63707;52.212;9.540;2023-09-19T03:02:38;99200.25;;;14.70;100.00
75136;BME280;63707;52.212;9.540;2023-09-19T03:05:07;99200.25;;;14.70;100.00
75136;BME280;63707;52.212;9.540;2023-09-19T03:07:32;99207.31;;;14.66;100.00
75136;BME280;63707;52.212;9.540;2023-09-19T03:10:00;99193.63;;;14.66;100.00
75136;BME280;63707;52.212;9.540;2023-09-19T03:12:25;99205.25;;;14.57;100.00
75136;BME280;63707;52.212;9.540;2023-09-19T03:14:51;99202.44;;;14.52;100.00
75136;BME280;63707;52.212;9.540;2023-09-19T03:17:17;99201.28;;;14.47;100.00
75136;BME280;63707;52.212;9.540;2023-09-19T03:19:44;99202.63;;;14.45;100.00
75136;BME280;63707;52.212;9.540;2023-09-19T03:22:10;99208.94;;;14.45;100.00
75136;BME280;63707;52.212;9.540;2023-09-19T03:24:36;99208.59;;;14.42;100.00
75136;BME280;63707;52.212;9.540;2023-09-19T03:27:04;99207.69;;;14.36;100.00
75136;BME280;63707;52.212;9.540;2023-09-19T03:29:30;99213.91;;;14.32;100.00
75136;BME280;63707;52.212;9.540;2023-09-19T03:31:55;99214.00;;;14.37;100.00
75136;BME280;63707;52.212;9.540;2023-09-19T03:34:21;99210.53;;;14.25;100.00
75136;BME280;63707;52.212;9.540;2023-09-19T03:36:47;99217.91;;;14.24;100.00
75136;BME280;63707;52.212;9.540;2023-09-19T03:39:12;99205.03;;;14.25;100.00
75136;BME280;63707;52.212;9.540;2023-09-19T03:41:40;99213.59;;;14.28;100.00
75136;BME280;63707;52.212;9.540;2023-09-19T03:44:07;99203.88;;;14.21;100.00
75136;BME280;63707;52.212;9.540;2023-09-19T03:46:32;99207.72;;;14.20;100.00
75136;BME280;63707;52.212;9.540;2023-09-19T03:49:00;99210.09;;;14.16;100.00
75136;BME280;63707;52.212;9.540;2023-09-19T03:51:26;99211.69;;;14.12;100.00
75136;BME280;63707;52.212;9.540;2023-09-19T03:53:51;99218.41;;;14.04;100.00
75136;BME280;63707;52.212;9.540;2023-09-19T03:56:17;99211.59;;;14.07;100.00
75136;BME280;63707;52.212;9.540;2023-09-19T03:58:42;99214.66;;;14.10;100.00
75136;BME280;63707;52.212;9.540;2023-09-19T04:01:09;99226.13;;;14.07;100.00
75136;BME280;63707;52.212;9.540;2023-09-19T04:03:35;99226.63;;;14.04;100.00
75136;BME280;63707;52.212;9.540;2023-09-19T04:06:11;99223.22;;;13.97;100.00
75136;BME280;63707;52.212;9.540;2023-09-19T04:08:37;99226.72;;;13.93;100.00
75136;BME280;63707;52.212;9.540;2023-09-19T04:11:02;99235.19;;;13.91;100.00
75136;BME280;63707;52.212;9.540;2023-09-19T04:13:28;99233.84;;;13.94;100.00
75136;BME280;63707;52.212;9.540;2023-09-19T04:15:53;99230.19;;;13.88;100.00
75136;BME280;63707;52.212;9.540;2023-09-19T04:18:20;99219.91;;;13.78;100.00
75136;BME280;63707;52.212;9.540;2023-09-19T04:20:48;99231.69;;;13.79;100.00
75136;BME280;63707;52.212;9.540;2023-09-19T04:23:14;99233.59;;;13.78;100.00
75136;BME280;63707;52.212;9.540;2023-09-19T04:25:40;99223.38;;;13.74;100.00
75136;BME280;63707;52.212;9.540;2023-09-19T04:28:05;99235.16;;;13.74;100.00
75136;BME280;63707;52.212;9.540;2023-09-19T04:30:31;99243.50;;;13.68;100.00
75136;BME280;63707;52.212;9.540;2023-09-19T04:32:57;99242.94;;;13.66;100.00
75136;BME280;63707;52.212;9.540;2023-09-19T04:35:24;99238.88;;;13.68;100.00
75136;BME280;63707;52.212;9.540;2023-09-19T04:37:50;99246.25;;;13.68;100.00
75136;BME280;63707;52.212;9.540;2023-09-19T04:40:16;99253.38;;;13.69;100.00
75136;BME280;63707;52.212;9.540;2023-09-19T04:42:44;99251.13;;;13.66;100.00
75136;BME280;63707;52.212;9.540;2023-09-19T04:45:11;99257.50;;;13.54;100.00
75136;BME280;63707;52.212;9.540;2023-09-19T04:47:37;99256.53;;;13.61;100.00
75136;BME280;63707;52.212;9.540;2023-09-19T04:50:06;99276.41;;;13.56;100.00
75136;BME280;63707;52.212;9.540;2023-09-19T04:52:34;99275.00;;;13.53;100.00
75136;BME280;63707;52.212;9.540;2023-09-19T04:54:59;99279.75;;;13.58;100.00
75136;BME280;63707;52.212;9.540;2023-09-19T04:57:25;99282.13;;;13.54;100.00
75136;BME280;63707;52.212;9.540;2023-09-19T04:59:50;99284.28;;;13.52;100.00
75136;BME280;63707;52.212;9.540;2023-09-19T05:02:16;99284.03;;;13.54;100.00
75136;BME280;63707;52.212;9.540;2023-09-19T05:04:41;99290.66;;;13.41;100.00
75136;BME280;63707;52.212;9.540;2023-09-19T05:07:07;99281.59;;;13.41;100.00
75136;BME280;63707;52.212;9.540;2023-09-19T05:09:34;99293.63;;;13.40;100.00
75136;BME280;63707;52.212;9.540;2023-09-19T05:14:25;99280.81;;;13.29;100.00
75136;BME280;63707;52.212;9.540;2023-09-19T05:16:50;99288.06;;;13.35;100.00
75136;BME280;63707;52.212;9.540;2023-09-19T05:19:16;99291.28;;;13.32;100.00
75136;BME280;63707;52.212;9.540;2023-09-19T05:21:42;99291.88;;;13.34;100.00
75136;BME280;63707;52.212;9.540;2023-09-19T05:24:07;99299.50;;;13.32;100.00
75136;BME280;63707;52.212;9.540;2023-09-19T05:26:34;99303.41;;;13.36;100.00
75136;BME280;63707;52.212;9.540;2023-09-19T05:29:00;99312.09;;;13.33;100.00
75136;BME280;63707;52.212;9.540;2023-09-19T05:31:27;99308.19;;;13.29;100.00
75136;BME280;63707;52.212;9.540;2023-09-19T05:33:53;99299.00;;;13.35;100.00
75136;BME280;63707;52.212;9.540;2023-09-19T05:36:20;99300.31;;;13.32;100.00
75136;BME280;63707;52.212;9.540;2023-09-19T05:38:45;99297.34;;;13.34;100.00
75136;BME280;63707;52.212;9.540;2023-09-19T05:41:14;99307.44;;;13.33;100.00
75136;BME280;63707;52.212;9.540;2023-09-19T05:43:41;99313.31;;;13.25;100.00
75136;BME280;63707;52.212;9.540;2023-09-19T05:46:07;99322.09;;;13.27;100.00
75136;BME280;63707;52.212;9.540;2023-09-19T05:48:33;99337.31;;;13.23;100.00
75136;BME280;63707;52.212;9.540;2023-09-19T05:50:59;99337.06;;;13.36;100.00
75136;BME280;63707;52.212;9.540;2023-09-19T05:53:26;99341.66;;;13.47;100.00
75136;BME280;63707;52.212;9.540;2023-09-19T05:55:52;99354.75;;;13.45;100.00
75136;BME280;63707;52.212;9.540;2023-09-19T05:58:19;99365.72;;;13.45;100.00
75136;BME280;63707;52.212;9.540;2023-09-19T06:00:46;99355.56;;;13.58;100.00
75136;BME280;63707;52.212;9.540;2023-09-19T06:03:14;99361.41;;;13.49;100.00
75136;BME280;63707;52.212;9.540;2023-09-19T06:05:40;99362.47;;;13.48;100.00
75136;BME280;63707;52.212;9.540;2023-09-19T06:08:06;99362.84;;;13.52;100.00
75136;BME280;63707;52.212;9.540;2023-09-19T06:10:33;99378.28;;;13.58;100.00
75136;BME280;63707;52.212;9.540;2023-09-19T06:12:59;99372.19;;;13.68;100.00
75136;BME280;63707;52.212;9.540;2023-09-19T06:15:25;99378.56;;;13.85;100.00
75136;BME280;63707;52.212;9.540;2023-09-19T06:17:54;99371.81;;;13.76;100.00
75136;BME280;63707;52.212;9.540;2023-09-19T06:20:24;99382.06;;;13.69;100.00
75136;BME280;63707;52.212;9.540;2023-09-19T06:22:51;99386.53;;;13.46;100.00
75136;BME280;63707;52.212;9.540;2023-09-19T06:25:17;99370.09;;;13.46;100.00
75136;BME280;63707;52.212;9.540;2023-09-19T06:27:46;99377.25;;;13.47;100.00
75136;BME280;63707;52.212;9.540;2023-09-19T06:30:12;99372.34;;;13.49;100.00
75136;BME280;63707;52.212;9.540;2023-09-19T06:32:39;99370.22;;;13.51;100.00
75136;BME280;63707;52.212;9.540;2023-09-19T06:35:06;99363.31;;;13.49;100.00
75136;BME280;63707;52.212;9.540;2023-09-19T06:37:34;99364.84;;;13.57;100.00
75136;BME280;63707;52.212;9.540;2023-09-19T06:40:05;99360.44;;;13.55;100.00
75136;BME280;63707;52.212;9.540;2023-09-19T06:42:31;99355.75;;;13.68;100.00
75136;BME280;63707;52.212;9.540;2023-09-19T06:44:56;99367.91;;;13.60;100.00
75136;BME280;63707;52.212;9.540;2023-09-19T06:47:22;99361.38;;;13.61;100.00
75136;BME280;63707;52.212;9.540;2023-09-19T06:49:47;99370.50;;;13.67;100.00
75136;BME280;63707;52.212;9.540;2023-09-19T06:52:14;99361.63;;;13.88;100.00
75136;BME280;63707;52.212;9.540;2023-09-19T06:54:40;99369.06;;;13.76;100.00
75136;BME280;63707;52.212;9.540;2023-09-19T06:57:06;99365.03;;;13.67;100.00
75136;BME280;63707;52.212;9.540;2023-09-19T06:59:34;99382.06;;;13.69;100.00
75136;BME280;63707;52.212;9.540;2023-09-19T07:02:01;99373.44;;;13.89;100.00
75136;BME280;63707;52.212;9.540;2023-09-19T07:04:27;99377.63;;;14.08;100.00
75136;BME280;63707;52.212;9.540;2023-09-19T07:06:52;99394.28;;;14.35;100.00
75136;BME280;63707;52.212;9.540;2023-09-19T07:09:19;99395.94;;;14.36;100.00
75136;BME280;63707;52.212;9.540;2023-09-19T07:11:45;99395.94;;;14.19;100.00
75136;BME280;63707;52.212;9.540;2023-09-19T07:14:11;99393.28;;;14.24;100.00
75136;BME280;63707;52.212;9.540;2023-09-19T07:16:37;99397.53;;;14.32;100.00
75136;BME280;63707;52.212;9.540;2023-09-19T07:19:04;99394.13;;;14.41;100.00
75136;BME280;63707;52.212;9.540;2023-09-19T07:21:29;99389.50;;;14.59;100.00
75136;BME280;63707;52.212;9.540;2023-09-19T07:23:55;99409.88;;;14.79;100.00
75136;BME280;63707;52.212;9.540;2023-09-19T07:26:22;99398.97;;;15.01;100.00
75136;BME280;63707;52.212;9.540;2023-09-19T07:28:47;99398.47;;;15.21;100.00
75136;BME280;63707;52.212;9.540;2023-09-19T07:31:13;99401.28;;;15.26;100.00
75136;BME280;63707;52.212;9.540;2023-09-19T07:33:39;99411.31;;;15.37;100.00
75136;BME280;63707;52.212;9.540;2023-09-19T07:36:05;99417.50;;;15.28;100.00
75136;BME280;63707;52.212;9.540;2023-09-19T07:38:31;99411.19;;;15.66;100.00
75136;BME280;63707;52.212;9.540;2023-09-19T07:41:00;99422.59;;;15.58;100.00
75136;BME280;63707;52.212;9.540;2023-09-19T07:43:27;99425.28;;;15.36;100.00
75136;BME280;63707;52.212;9.540;2023-09-19T07:45:52;99425.66;;;15.23;100.00
75136;BME280;63707;52.212;9.540;2023-09-19T07:48:18;99440.63;;;14.98;100.00
75136;BME280;63707;52.212;9.540;2023-09-19T07:50:44;99442.88;;;15.18;100.00
75136;BME280;63707;52.212;9.540;2023-09-19T07:53:10;99445.88;;;15.00;100.00
75136;BME280;63707;52.212;9.540;2023-09-19T07:55:38;99436.56;;;15.01;100.00
75136;BME280;63707;52.212;9.540;2023-09-19T07:58:05;99453.03;;;14.84;100.00
75136;BME280;63707;52.212;9.540;2023-09-19T08:00:33;99439.38;;;15.06;100.00
75136;BME280;63707;52.212;9.540;2023-09-19T08:03:00;99428.88;;;15.36;100.00
75136;BME280;63707;52.212;9.540;2023-09-19T08:05:26;99444.25;;;15.37;100.00
75136;BME280;63707;52.212;9.540;2023-09-19T08:07:52;99436.47;;;15.51;100.00
75136;BME280;63707;52.212;9.540;2023-09-19T08:10:19;99439.22;;;15.51;100.00
75136;BME280;63707;52.212;9.540;2023-09-19T08:12:47;99431.06;;;15.73;100.00
75136;BME280;63707;52.212;9.540;2023-09-19T08:15:14;99434.88;;;16.43;100.00
75136;BME280;63707;52.212;9.540;2023-09-19T08:17:42;99447.72;;;17.23;100.00
75136;BME280;63707;52.212;9.540;2023-09-19T08:20:08;99449.19;;;16.66;100.00
75136;BME280;63707;52.212;9.540;2023-09-19T08:22:42;99458.81;;;16.69;100.00
75136;BME280;63707;52.212;9.540;2023-09-19T08:25:08;99464.91;;;17.03;100.00
75136;BME280;63707;52.212;9.540;2023-09-19T08:27:34;99461.94;;;17.10;100.00
75136;BME280;63707;52.212;9.540;2023-09-19T08:30:01;99448.78;;;17.59;100.00
75136;BME280;63707;52.212;9.540;2023-09-19T08:32:28;99449.22;;;17.93;100.00
75136;BME280;63707;52.212;9.540;2023-09-19T08:34:55;99458.63;;;17.50;100.00
75136;BME280;63707;52.212;9.540;2023-09-19T08:37:20;99474.25;;;17.76;100.00
75136;BME280;63707;52.212;9.540;2023-09-19T08:39:46;99460.22;;;17.41;100.00
75136;BME280;63707;52.212;9.540;2023-09-19T08:42:12;99471.00;;;17.47;100.00
75136;BME280;63707;52.212;9.540;2023-09-19T08:44:38;99474.41;;;18.07;100.00
75136;BME280;63707;52.212;9.540;2023-09-19T08:47:09;99473.47;;;17.91;100.00
75136;BME280;63707;52.212;9.540;2023-09-19T08:49:41;99461.19;;;17.61;100.00
75136;BME280;63707;52.212;9.540;2023-09-19T08:52:20;99463.38;;;17.59;100.00
75136;BME280;63707;52.212;9.540;2023-09-19T08:54:52;99482.91;;;18.00;100.00
75136;BME280;63707;52.212;9.540;2023-09-19T08:57:19;99464.00;;;16.97;100.00
75136;BME280;63707;52.212;9.540;2023-09-19T08:59:47;99464.34;;;17.85;100.00
75136;BME280;63707;52.212;9.540;2023-09-19T09:02:15;99464.59;;;18.46;100.00
75136;BME280;63707;52.212;9.540;2023-09-19T09:04:43;99469.63;;;17.50;100.00
75136;BME280;63707;52.212;9.540;2023-09-19T09:07:10;99475.13;;;17.87;100.00
75136;BME280;63707;52.212;9.540;2023-09-19T09:09:38;99482.56;;;17.86;100.00
75136;BME280;63707;52.212;9.540;2023-09-19T09:12:08;99487.63;;;17.20;100.00
75136;BME280;63707;52.212;9.540;2023-09-19T09:14:34;99489.84;;;17.60;100.00
75136;BME280;63707;52.212;9.540;2023-09-19T09:17:00;99470.28;;;17.62;100.00
75136;BME280;63707;52.212;9.540;2023-09-19T09:19:26;99483.78;;;18.11;100.00
75136;BME280;63707;52.212;9.540;2023-09-19T09:21:52;99489.81;;;17.18;100.00
75136;BME280;63707;52.212;9.540;2023-09-19T09:24:26;99487.78;;;18.55;100.00
75136;BME280;63707;52.212;9.540;2023-09-19T09:26:54;99480.19;;;18.10;100.00
75136;BME280;63707;52.212;9.540;2023-09-19T09:29:41;99485.94;;;17.56;100.00
75136;BME280;63707;52.212;9.540;2023-09-19T09:32:16;99475.38;;;17.85;100.00
75136;BME280;63707;52.212;9.540;2023-09-19T09:34:43;99475.38;;;18.53;100.00
75136;BME280;63707;52.212;9.540;2023-09-19T09:37:13;99483.16;;;18.71;100.00
75136;BME280;63707;52.212;9.540;2023-09-19T09:39:40;99492.63;;;18.13;100.00
75136;BME280;63707;52.212;9.540;2023-09-19T09:42:07;99487.03;;;18.80;100.00
75136;BME280;63707;52.212;9.540;2023-09-19T09:44:35;99490.81;;;18.54;100.00
75136;BME280;63707;52.212;9.540;2023-09-19T09:47:00;99493.16;;;18.10;100.00
75136;BME280;63707;52.212;9.540;2023-09-19T09:49:49;99495.47;;;20.11;100.00
75136;BME280;63707;52.212;9.540;2023-09-19T09:52:19;99490.88;;;19.76;100.00
75136;BME280;63707;52.212;9.540;2023-09-19T09:54:58;99485.97;;;19.17;100.00
75136;BME280;63707;52.212;9.540;2023-09-19T09:57:27;99489.81;;;19.57;100.00
75136;BME280;63707;52.212;9.540;2023-09-19T09:59:53;99498.38;;;18.99;100.00
75136;BME280;63707;52.212;9.540;2023-09-19T10:02:24;99480.16;;;19.03;100.00
75136;BME280;63707;52.212;9.540;2023-09-19T10:04:51;99493.69;;;19.15;100.00
75136;BME280;63707;52.212;9.540;2023-09-19T10:07:27;99488.44;;;18.00;100.00
75136;BME280;63707;52.212;9.540;2023-09-19T10:09:58;99495.03;;;18.82;100.00
75136;BME280;63707;52.212;9.540;2023-09-19T10:12:32;99501.56;;;20.08;100.00
75136;BME280;63707;52.212;9.540;2023-09-19T10:15:02;99500.47;;;18.46;100.00
75136;BME280;63707;52.212;9.540;2023-09-19T10:17:29;99492.00;;;17.53;100.00
75136;BME280;63707;52.212;9.540;2023-09-19T10:19:57;99500.28;;;17.58;100.00
75136;BME280;63707;52.212;9.540;2023-09-19T10:22:24;99499.09;;;20.06;100.00
75136;BME280;63707;52.212;9.540;2023-09-19T10:24:53;99491.88;;;20.10;100.00
75136;BME280;63707;52.212;9.540;2023-09-19T10:27:19;99501.97;;;19.61;100.00
75136;BME280;63707;52.212;9.540;2023-09-19T10:29:48;99486.91;;;22.22;100.00
75136;BME280;63707;52.212;9.540;2023-09-19T10:32:16;99487.06;;;20.47;100.00
75136;BME280;63707;52.212;9.540;2023-09-19T10:34:46;99502.16;;;21.09;100.00
75136;BME280;63707;52.212;9.540;2023-09-19T10:37:12;99495.53;;;21.67;100.00
75136;BME280;63707;52.212;9.540;2023-09-19T10:39:39;99498.13;;;21.30;100.00
75136;BME280;63707;52.212;9.540;2023-09-19T10:42:06;99482.31;;;20.96;100.00
75136;BME280;63707;52.212;9.540;2023-09-19T10:44:37;99497.19;;;21.68;100.00
75136;BME280;63707;52.212;9.540;2023-09-19T10:47:16;99490.63;;;19.67;100.00
75136;BME280;63707;52.212;9.540;2023-09-19T10:49:44;99495.94;;;21.22;100.00
75136;BME280;63707;52.212;9.540;2023-09-19T10:52:14;99509.78;;;20.88;100.00
75136;BME280;63707;52.212;9.540;2023-09-19T10:54:46;99505.97;;;21.81;100.00
75136;BME280;63707;52.212;9.540;2023-09-19T10:57:19;99509.63;;;21.47;100.00
75136;BME280;63707;52.212;9.540;2023-09-19T11:00:00;99522.38;;;20.65;100.00
75136;BME280;63707;52.212;9.540;2023-09-19T11:02:29;99510.03;;;20.32;100.00
75136;BME280;63707;52.212;9.540;2023-09-19T11:05:11;99497.53;;;20.55;100.00
75136;BME280;63707;52.212;9.540;2023-09-19T11:07:56;99504.44;;;20.57;100.00
75136;BME280;63707;52.212;9.540;2023-09-19T11:10:46;99496.44;;;20.51;100.00
75136;BME280;63707;52.212;9.540;2023-09-19T11:13:25;99497.31;;;21.29;100.00
75136;BME280;63707;52.212;9.540;2023-09-19T11:16:17;99497.22;;;23.02;100.00
75136;BME280;63707;52.212;9.540;2023-09-19T11:18:53;99499.50;;;23.32;100.00
75136;BME280;63707;52.212;9.540;2023-09-19T11:21:52;99507.00;;;21.27;100.00
75136;BME280;63707;52.212;9.540;2023-09-19T11:24:32;99503.28;;;21.42;100.00
75136;BME280;63707;52.212;9.540;2023-09-19T11:27:16;99492.84;;;20.50;100.00
75136;BME280;63707;52.212;9.540;2023-09-19T11:29:43;99509.69;;;19.33;100.00
75136;BME280;63707;52.212;9.540;2023-09-19T11:32:09;99503.91;;;19.45;100.00
75136;BME280;63707;52.212;9.540;2023-09-19T11:34:44;99496.72;;;19.08;100.00
75136;BME280;63707;52.212;9.540;2023-09-19T11:40:25;99505.63;;;18.28;100.00
75136;BME280;63707;52.212;9.540;2023-09-19T11:42:53;99484.94;;;21.75;100.00
75136;BME280;63707;52.212;9.540;2023-09-19T11:48:28;99476.91;;;22.45;100.00
75136;BME280;63707;52.212;9.540;2023-09-19T11:50:56;99485.28;;;22.82;100.00
75136;BME280;63707;52.212;9.540;2023-09-19T11:53:22;99491.16;;;23.65;100.00
75136;BME280;63707;52.212;9.540;2023-09-19T11:55:50;99480.19;;;21.80;100.00
75136;BME280;63707;52.212;9.540;2023-09-19T11:58:18;99490.28;;;24.38;100.00
75136;BME280;63707;52.212;9.540;2023-09-19T12:00:45;99500.84;;;23.35;100.00
75136;BME280;63707;52.212;9.540;2023-09-19T12:03:12;99495.63;;;19.55;100.00
75136;BME280;63707;52.212;9.540;2023-09-19T12:05:39;99502.81;;;18.95;100.00
75136;BME280;63707;52.212;9.540;2023-09-19T12:08:07;99500.06;;;18.12;100.00
75136;BME280;63707;52.212;9.540;2023-09-19T12:10:44;99497.56;;;19.19;100.00
75136;BME280;63707;52.212;9.540;2023-09-19T12:13:10;99496.69;;;20.54;100.00
75136;BME280;63707;52.212;9.540;2023-09-19T12:15:37;99493.59;;;18.59;100.00
75136;BME280;63707;52.212;9.540;2023-09-19T12:18:05;99493.69;;;18.95;100.00
75136;BME280;63707;52.212;9.540;2023-09-19T12:20:42;99480.34;;;18.51;100.00
75136;BME280;63707;52.212;9.540;2023-09-19T12:23:14;99481.50;;;18.80;100.00
75136;BME280;63707;52.212;9.540;2023-09-19T12:25:41;99488.75;;;20.87;100.00
75136;BME280;63707;52.212;9.540;2023-09-19T12:28:11;99493.06;;;19.84;100.00
75136;BME280;63707;52.212;9.540;2023-09-19T12:30:37;99485.94;;;19.37;100.00
75136;BME280;63707;52.212;9.540;2023-09-19T12:33:15;99480.97;;;20.45;100.00
75136;BME280;63707;52.212;9.540;2023-09-19T12:35:41;99484.56;;;19.45;100.00
75136;BME280;63707;52.212;9.540;2023-09-19T12:38:08;99496.69;;;18.88;100.00
75136;BME280;63707;52.212;9.540;2023-09-19T12:40:36;99492.88;;;18.94;100.00
75136;BME280;63707;52.212;9.540;2023-09-19T12:43:03;99500.53;;;18.72;100.00
75136;BME280;63707;52.212;9.540;2023-09-19T12:45:30;99488.28;;;18.37;100.00
75136;BME280;63707;52.212;9.540;2023-09-19T12:48:18;99493.69;;;19.30;100.00
75136;BME280;63707;52.212;9.540;2023-09-19T12:51:04;99481.81;;;19.55;100.00
75136;BME280;63707;52.212;9.540;2023-09-19T12:53:33;99477.75;;;20.71;100.00
75136;BME280;63707;52.212;9.540;2023-09-19T12:56:03;99480.41;;;18.86;100.00
75136;BME280;63707;52.212;9.540;2023-09-19T12:58:32;99469.09;;;18.83;100.00
75136;BME280;63707;52.212;9.540;2023-09-19T13:00:57;99465.50;;;18.82;100.00
75136;BME280;63707;52.212;9.540;2023-09-19T13:03:26;99472.13;;;18.86;100.00
75136;BME280;63707;52.212;9.540;2023-09-19T13:05:54;99467.69;;;18.75;100.00